sensor_id;sensor_type;location;lat;lon;timestamp;P1;durP1;ratioP1;P2;durP2;ratioP2
32427;SDS011;18882;50.952;4.366;2023-01-20T00:06:20;29.92;;;8.02;;
32427;SDS011;18882;50.952;4.366;2023-01-20T00:08:57;22.40;;;7.63;;
32427;SDS011;18882;50.952;4.366;2023-01-20T00:11:24;27.15;;;7.78;;
32427;SDS011;18882;50.952;4.366;2023-01-20T00:13:54;28.08;;;8.15;;
32427;SDS011;18882;50.952;4.366;2023-01-20T00:16:20;32.85;;;8.18;;
32427;SDS011;18882;50.952;4.366;2023-01-20T00:18:46;27.55;;;7.18;;
32427;SDS011;18882;50.952;4.366;2023-01-20T00:21:12;30.77;;;7.65;;
32427;SDS011;18882;50.952;4.366;2023-01-20T00:23:40;34.75;;;8.27;;
32427;SDS011;18882;50.952;4.366;2023-01-20T00:26:08;32.72;;;8.13;;
32427;SDS011;18882;50.952;4.366;2023-01-20T00:28:38;40.05;;;8.00;;
32427;SDS011;18882;50.952;4.366;2023-01-20T00:31:14;35.17;;;7.88;;
32427;SDS011;18882;50.952;4.366;2023-01-20T00:33:41;34.35;;;8.60;;
32427;SDS011;18882;50.952;4.366;2023-01-20T00:36:07;24.27;;;8.35;;
32427;SDS011;18882;50.952;4.366;2023-01-20T00:38:34;29.73;;;6.85;;
32427;SDS011;18882;50.952;4.366;2023-01-20T00:41:00;32.95;;;8.85;;
32427;SDS011;18882;50.952;4.366;2023-01-20T00:43:26;37.38;;;9.23;;
32427;SDS011;18882;50.952;4.366;2023-01-20T00:45:51;34.88;;;10.23;;
32427;SDS011;18882;50.952;4.366;2023-01-20T00:48:17;40.90;;;9.50;;
32427;SDS011;18882;50.952;4.366;2023-01-20T00:50:43;34.13;;;7.75;;
32427;SDS011;18882;50.952;4.366;2023-01-20T00:53:08;31.15;;;7.80;;
32427;SDS011;18882;50.952;4.366;2023-01-20T00:55:34;33.50;;;7.43;;
32427;SDS011;18882;50.952;4.366;2023-01-20T00:58:00;30.73;;;8.63;;
32427;SDS011;18882;50.952;4.366;2023-01-20T01:00:26;43.45;;;9.07;;
32427;SDS011;18882;50.952;4.366;2023-01-20T01:02:51;36.13;;;8.68;;
32427;SDS011;18882;50.952;4.366;2023-01-20T01:05:17;30.88;;;8.60;;
32427;SDS011;18882;50.952;4.366;2023-01-20T01:07:43;42.00;;;8.55;;
32427;SDS011;18882;50.952;4.366;2023-01-20T01:10:08;39.38;;;8.65;;
32427;SDS011;18882;50.952;4.366;2023-01-20T01:12:34;40.90;;;9.65;;
32427;SDS011;18882;50.952;4.366;2023-01-20T01:15:00;31.33;;;7.57;;
32427;SDS011;18882;50.952;4.366;2023-01-20T01:17:26;37.17;;;8.18;;
32427;SDS011;18882;50.952;4.366;2023-01-20T01:19:51;37.03;;;9.63;;
32427;SDS011;18882;50.952;4.366;2023-01-20T01:22:18;27.90;;;8.55;;
32427;SDS011;18882;50.952;4.366;2023-01-20T01:24:44;41.00;;;9.50;;
32427;SDS011;18882;50.952;4.366;2023-01-20T01:27:10;39.67;;;8.82;;
32427;SDS011;18882;50.952;4.366;2023-01-20T01:29:36;38.30;;;7.80;;
32427;SDS011;18882;50.952;4.366;2023-01-20T01:32:02;32.70;;;8.55;;
32427;SDS011;18882;50.952;4.366;2023-01-20T01:34:29;33.45;;;9.27;;
32427;SDS011;18882;50.952;4.366;2023-01-20T01:36:55;34.33;;;8.43;;
32427;SDS011;18882;50.952;4.366;2023-01-20T01:39:21;33.22;;;7.93;;
32427;SDS011;18882;50.952;4.366;2023-01-20T01:41:47;29.38;;;7.65;;
32427;SDS011;18882;50.952;4.366;2023-01-20T01:44:13;37.05;;;8.27;;
32427;SDS011;18882;50.952;4.366;2023-01-20T01:46:39;33.20;;;7.30;;
32427;SDS011;18882;50.952;4.366;2023-01-20T01:49:25;34.55;;;7.65;;
32427;SDS011;18882;50.952;4.366;2023-01-20T01:51:58;35.17;;;7.28;;
32427;SDS011;18882;50.952;4.366;2023-01-20T01:54:28;30.70;;;7.65;;
32427;SDS011;18882;50.952;4.366;2023-01-20T01:56:57;34.40;;;8.73;;
32427;SDS011;18882;50.952;4.366;2023-01-20T01:59:23;34.95;;;7.80;;
32427;SDS011;18882;50.952;4.366;2023-01-20T02:01:50;30.48;;;7.68;;
32427;SDS011;18882;50.952;4.366;2023-01-20T02:04:21;30.67;;;7.97;;
32427;SDS011;18882;50.952;4.366;2023-01-20T02:06:59;32.22;;;6.97;;
32427;SDS011;18882;50.952;4.366;2023-01-20T02:09:28;26.67;;;6.75;;
32427;SDS011;18882;50.952;4.366;2023-01-20T02:11:55;39.35;;;8.40;;
32427;SDS011;18882;50.952;4.366;2023-01-20T02:14:27;31.83;;;8.50;;
32427;SDS011;18882;50.952;4.366;2023-01-20T02:22:21;33.85;;;8.65;;
32427;SDS011;18882;50.952;4.366;2023-01-20T02:27:40;33.30;;;8.77;;
32427;SDS011;18882;50.952;4.366;2023-01-20T02:36:08;39.97;;;7.82;;
32427;SDS011;18882;50.952;4.366;2023-01-20T02:41:35;27.38;;;6.75;;
32427;SDS011;18882;50.952;4.366;2023-01-20T02:45:00;25.35;;;7.20;;
32427;SDS011;18882;50.952;4.366;2023-01-20T02:47:29;32.72;;;7.25;;
32427;SDS011;18882;50.952;4.366;2023-01-20T02:52:35;29.67;;;6.90;;
32427;SDS011;18882;50.952;4.366;2023-01-20T02:55:07;27.50;;;7.15;;
32427;SDS011;18882;50.952;4.366;2023-01-20T02:57:36;30.50;;;7.10;;
32427;SDS011;18882;50.952;4.366;2023-01-20T03:00:08;24.88;;;8.00;;
32427;SDS011;18882;50.952;4.366;2023-01-20T03:02:57;23.73;;;7.18;;
32427;SDS011;18882;50.952;4.366;2023-01-20T03:05:26;31.52;;;8.95;;
32427;SDS011;18882;50.952;4.366;2023-01-20T03:07:55;39.05;;;7.95;;
32427;SDS011;18882;50.952;4.366;2023-01-20T03:10:23;30.38;;;8.15;;
32427;SDS011;18882;50.952;4.366;2023-01-20T03:12:56;41.55;;;9.90;;
32427;SDS011;18882;50.952;4.366;2023-01-20T03:15:57;27.23;;;7.55;;
32427;SDS011;18882;50.952;4.366;2023-01-20T03:18:31;37.83;;;8.98;;
32427;SDS011;18882;50.952;4.366;2023-01-20T03:20:57;17.90;;;7.13;;
32427;SDS011;18882;50.952;4.366;2023-01-20T03:23:27;30.80;;;8.77;;
32427;SDS011;18882;50.952;4.366;2023-01-20T03:25:57;30.90;;;8.00;;
32427;SDS011;18882;50.952;4.366;2023-01-20T03:28:23;27.20;;;6.90;;
32427;SDS011;18882;50.952;4.366;2023-01-20T03:30:49;29.48;;;8.10;;
32427;SDS011;18882;50.952;4.366;2023-01-20T03:33:19;30.38;;;8.35;;
32427;SDS011;18882;50.952;4.366;2023-01-20T03:35:46;35.60;;;7.63;;
32427;SDS011;18882;50.952;4.366;2023-01-20T03:38:12;24.75;;;7.95;;
32427;SDS011;18882;50.952;4.366;2023-01-20T03:40:44;33.72;;;8.70;;
32427;SDS011;18882;50.952;4.366;2023-01-20T03:43:19;39.63;;;8.27;;
32427;SDS011;18882;50.952;4.366;2023-01-20T03:46:18;23.02;;;6.78;;
32427;SDS011;18882;50.952;4.366;2023-01-20T03:48:50;37.45;;;8.80;;
32427;SDS011;18882;50.952;4.366;2023-01-20T03:51:31;25.40;;;8.38;;
32427;SDS011;18882;50.952;4.366;2023-01-20T03:54:08;35.47;;;8.07;;
32427;SDS011;18882;50.952;4.366;2023-01-20T03:56:50;24.13;;;7.65;;
32427;SDS011;18882;50.952;4.366;2023-01-20T03:59:28;39.45;;;8.75;;
32427;SDS011;18882;50.952;4.366;2023-01-20T04:02:00;29.35;;;8.27;;
32427;SDS011;18882;50.952;4.366;2023-01-20T04:04:29;27.42;;;7.40;;
32427;SDS011;18882;50.952;4.366;2023-01-20T04:06:58;44.67;;;8.40;;
32427;SDS011;18882;50.952;4.366;2023-01-20T04:09:28;31.40;;;8.32;;
32427;SDS011;18882;50.952;4.366;2023-01-20T04:11:57;37.97;;;8.68;;
32427;SDS011;18882;50.952;4.366;2023-01-20T04:14:23;36.95;;;8.45;;
32427;SDS011;18882;50.952;4.366;2023-01-20T04:16:52;31.67;;;8.02;;
32427;SDS011;18882;50.952;4.366;2023-01-20T04:19:20;26.75;;;8.55;;
32427;SDS011;18882;50.952;4.366;2023-01-20T04:24:29;31.50;;;8.98;;
32427;SDS011;18882;50.952;4.366;2023-01-20T04:27:01;40.78;;;7.95;;
32427;SDS011;18882;50.952;4.366;2023-01-20T04:29:27;25.45;;;7.93;;
32427;SDS011;18882;50.952;4.366;2023-01-20T04:31:59;30.60;;;7.95;;
32427;SDS011;18882;50.952;4.366;2023-01-20T04:34:26;30.38;;;8.18;;
32427;SDS011;18882;50.952;4.366;2023-01-20T04:36:51;39.08;;;8.40;;
32427;SDS011;18882;50.952;4.366;2023-01-20T04:39:17;32.08;;;8.32;;
32427;SDS011;18882;50.952;4.366;2023-01-20T04:41:43;30.65;;;8.40;;
32427;SDS011;18882;50.952;4.366;2023-01-20T04:44:08;26.17;;;6.70;;
32427;SDS011;18882;50.952;4.366;2023-01-20T04:46:34;26.83;;;7.55;;
32427;SDS011;18882;50.952;4.366;2023-01-20T04:49:00;31.67;;;8.73;;
32427;SDS011;18882;50.952;4.366;2023-01-20T04:51:25;32.55;;;7.78;;
32427;SDS011;18882;50.952;4.366;2023-01-20T04:53:55;30.80;;;7.82;;
32427;SDS011;18882;50.952;4.366;2023-01-20T04:56:21;28.38;;;7.95;;
32427;SDS011;18882;50.952;4.366;2023-01-20T04:58:47;24.70;;;7.88;;
32427;SDS011;18882;50.952;4.366;2023-01-20T05:01:12;33.60;;;8.80;;
32427;SDS011;18882;50.952;4.366;2023-01-20T05:03:38;29.50;;;7.45;;
32427;SDS011;18882;50.952;4.366;2023-01-20T05:06:04;33.10;;;8.15;;
32427;SDS011;18882;50.952;4.366;2023-01-20T05:08:30;30.90;;;8.13;;
32427;SDS011;18882;50.952;4.366;2023-01-20T05:10:56;31.27;;;8.30;;
32427;SDS011;18882;50.952;4.366;2023-01-20T05:13:22;28.02;;;8.23;;
32427;SDS011;18882;50.952;4.366;2023-01-20T05:15:48;29.40;;;8.43;;
32427;SDS011;18882;50.952;4.366;2023-01-20T05:18:13;26.23;;;8.15;;
32427;SDS011;18882;50.952;4.366;2023-01-20T05:20:39;30.02;;;8.45;;
32427;SDS011;18882;50.952;4.366;2023-01-20T05:23:05;36.67;;;8.20;;
32427;SDS011;18882;50.952;4.366;2023-01-20T05:25:31;33.65;;;8.23;;
32427;SDS011;18882;50.952;4.366;2023-01-20T05:27:57;37.40;;;8.45;;
32427;SDS011;18882;50.952;4.366;2023-01-20T05:30:24;33.15;;;8.25;;
32427;SDS011;18882;50.952;4.366;2023-01-20T05:32:50;30.95;;;7.43;;
32427;SDS011;18882;50.952;4.366;2023-01-20T05:35:16;38.85;;;9.48;;
32427;SDS011;18882;50.952;4.366;2023-01-20T05:37:42;33.92;;;8.13;;
32427;SDS011;18882;50.952;4.366;2023-01-20T05:40:08;28.45;;;7.50;;
32427;SDS011;18882;50.952;4.366;2023-01-20T05:42:35;33.42;;;8.68;;
32427;SDS011;18882;50.952;4.366;2023-01-20T05:45:00;37.03;;;9.55;;
32427;SDS011;18882;50.952;4.366;2023-01-20T05:47:26;31.63;;;8.02;;
32427;SDS011;18882;50.952;4.366;2023-01-20T05:49:52;33.70;;;7.55;;
32427;SDS011;18882;50.952;4.366;2023-01-20T05:52:18;35.45;;;9.13;;
32427;SDS011;18882;50.952;4.366;2023-01-20T05:54:43;39.63;;;9.95;;
32427;SDS011;18882;50.952;4.366;2023-01-20T05:57:09;26.25;;;6.88;;
32427;SDS011;18882;50.952;4.366;2023-01-20T05:59:35;21.05;;;7.15;;
32427;SDS011;18882;50.952;4.366;2023-01-20T06:02:00;25.23;;;7.20;;
32427;SDS011;18882;50.952;4.366;2023-01-20T06:04:26;29.38;;;7.28;;
32427;SDS011;18882;50.952;4.366;2023-01-20T06:06:52;37.00;;;8.30;;
32427;SDS011;18882;50.952;4.366;2023-01-20T06:09:17;30.23;;;7.45;;
32427;SDS011;18882;50.952;4.366;2023-01-20T06:11:43;31.02;;;6.90;;
32427;SDS011;18882;50.952;4.366;2023-01-20T06:14:08;31.67;;;7.93;;
32427;SDS011;18882;50.952;4.366;2023-01-20T06:16:34;23.58;;;6.30;;
32427;SDS011;18882;50.952;4.366;2023-01-20T06:19:00;19.60;;;5.90;;
32427;SDS011;18882;50.952;4.366;2023-01-20T06:21:25;39.20;;;8.88;;
32427;SDS011;18882;50.952;4.366;2023-01-20T06:23:51;19.02;;;6.13;;
32427;SDS011;18882;50.952;4.366;2023-01-20T06:26:18;29.17;;;6.35;;
32427;SDS011;18882;50.952;4.366;2023-01-20T06:28:43;28.15;;;6.97;;
32427;SDS011;18882;50.952;4.366;2023-01-20T06:31:13;25.33;;;7.97;;
32427;SDS011;18882;50.952;4.366;2023-01-20T06:33:40;29.33;;;6.95;;
32427;SDS011;18882;50.952;4.366;2023-01-20T06:36:06;25.40;;;7.03;;
32427;SDS011;18882;50.952;4.366;2023-01-20T06:38:33;24.60;;;6.40;;
32427;SDS011;18882;50.952;4.366;2023-01-20T06:41:06;25.33;;;6.65;;
32427;SDS011;18882;50.952;4.366;2023-01-20T06:43:34;32.65;;;7.35;;
32427;SDS011;18882;50.952;4.366;2023-01-20T06:46:04;30.50;;;8.02;;
32427;SDS011;18882;50.952;4.366;2023-01-20T06:48:31;31.45;;;7.38;;
32427;SDS011;18882;50.952;4.366;2023-01-20T06:51:05;31.58;;;8.32;;
32427;SDS011;18882;50.952;4.366;2023-01-20T06:53:32;25.58;;;7.97;;
32427;SDS011;18882;50.952;4.366;2023-01-20T06:55:58;28.10;;;7.18;;
32427;SDS011;18882;50.952;4.366;2023-01-20T06:58:25;26.33;;;7.05;;
32427;SDS011;18882;50.952;4.366;2023-01-20T07:00:53;36.92;;;8.82;;
32427;SDS011;18882;50.952;4.366;2023-01-20T07:03:20;27.63;;;8.05;;
32427;SDS011;18882;50.952;4.366;2023-01-20T07:05:56;28.00;;;7.68;;
32427;SDS011;18882;50.952;4.366;2023-01-20T07:08:24;36.22;;;9.07;;
32427;SDS011;18882;50.952;4.366;2023-01-20T07:10:49;25.85;;;8.15;;
32427;SDS011;18882;50.952;4.366;2023-01-20T07:13:15;31.45;;;9.25;;
32427;SDS011;18882;50.952;4.366;2023-01-20T07:15:41;27.20;;;7.95;;
32427;SDS011;18882;50.952;4.366;2023-01-20T07:18:06;24.88;;;6.90;;
32427;SDS011;18882;50.952;4.366;2023-01-20T07:20:32;27.35;;;8.10;;
32427;SDS011;18882;50.952;4.366;2023-01-20T07:22:58;27.27;;;8.30;;
32427;SDS011;18882;50.952;4.366;2023-01-20T07:25:24;24.88;;;6.80;;
32427;SDS011;18882;50.952;4.366;2023-01-20T07:27:50;24.98;;;7.07;;
32427;SDS011;18882;50.952;4.366;2023-01-20T07:30:17;31.90;;;8.50;;
32427;SDS011;18882;50.952;4.366;2023-01-20T07:32:43;30.83;;;7.93;;
32427;SDS011;18882;50.952;4.366;2023-01-20T07:35:08;29.25;;;8.45;;
32427;SDS011;18882;50.952;4.366;2023-01-20T07:37:34;30.50;;;8.90;;
32427;SDS011;18882;50.952;4.366;2023-01-20T07:40:01;32.15;;;8.68;;
32427;SDS011;18882;50.952;4.366;2023-01-20T07:42:27;29.60;;;8.63;;
32427;SDS011;18882;50.952;4.366;2023-01-20T07:44:52;35.45;;;9.05;;
32427;SDS011;18882;50.952;4.366;2023-01-20T07:47:18;34.40;;;9.68;;
32427;SDS011;18882;50.952;4.366;2023-01-20T07:49:44;24.10;;;7.45;;
32427;SDS011;18882;50.952;4.366;2023-01-20T07:52:09;28.58;;;8.95;;
32427;SDS011;18882;50.952;4.366;2023-01-20T07:54:35;29.75;;;8.95;;
32427;SDS011;18882;50.952;4.366;2023-01-20T07:57:01;34.92;;;9.30;;
32427;SDS011;18882;50.952;4.366;2023-01-20T07:59:27;29.63;;;8.18;;
32427;SDS011;18882;50.952;4.366;2023-01-20T08:01:54;33.67;;;8.73;;
32427;SDS011;18882;50.952;4.366;2023-01-20T08:04:19;28.55;;;7.72;;
32427;SDS011;18882;50.952;4.366;2023-01-20T08:06:45;22.13;;;6.95;;
32427;SDS011;18882;50.952;4.366;2023-01-20T08:09:12;29.95;;;8.45;;
32427;SDS011;18882;50.952;4.366;2023-01-20T08:11:38;28.83;;;8.30;;
32427;SDS011;18882;50.952;4.366;2023-01-20T08:14:04;31.00;;;8.82;;
32427;SDS011;18882;50.952;4.366;2023-01-20T08:16:30;26.88;;;7.80;;
32427;SDS011;18882;50.952;4.366;2023-01-20T08:18:56;22.42;;;7.20;;
32427;SDS011;18882;50.952;4.366;2023-01-20T08:21:24;27.30;;;8.27;;
32427;SDS011;18882;50.952;4.366;2023-01-20T08:23:53;35.20;;;8.63;;
32427;SDS011;18882;50.952;4.366;2023-01-20T08:26:21;26.40;;;7.95;;
32427;SDS011;18882;50.952;4.366;2023-01-20T08:28:51;31.80;;;7.57;;
32427;SDS011;18882;50.952;4.366;2023-01-20T08:31:19;25.67;;;7.18;;
32427;SDS011;18882;50.952;4.366;2023-01-20T08:33:46;22.92;;;7.95;;
32427;SDS011;18882;50.952;4.366;2023-01-20T08:36:14;22.80;;;8.02;;
32427;SDS011;18882;50.952;4.366;2023-01-20T08:38:42;20.30;;;8.45;;
32427;SDS011;18882;50.952;4.366;2023-01-20T08:41:10;32.35;;;8.65;;
32427;SDS011;18882;50.952;4.366;2023-01-20T08:43:37;24.10;;;8.18;;
32427;SDS011;18882;50.952;4.366;2023-01-20T08:46:05;27.45;;;7.47;;
32427;SDS011;18882;50.952;4.366;2023-01-20T08:48:32;31.55;;;8.85;;
32427;SDS011;18882;50.952;4.366;2023-01-20T08:50:58;29.23;;;7.82;;
32427;SDS011;18882;50.952;4.366;2023-01-20T08:53:26;18.75;;;5.47;;
32427;SDS011;18882;50.952;4.366;2023-01-20T08:55:53;23.80;;;7.32;;
32427;SDS011;18882;50.952;4.366;2023-01-20T08:58:20;27.77;;;7.32;;
32427;SDS011;18882;50.952;4.366;2023-01-20T09:00:45;25.75;;;7.88;;
32427;SDS011;18882;50.952;4.366;2023-01-20T09:03:11;28.40;;;8.40;;
32427;SDS011;18882;50.952;4.366;2023-01-20T09:05:37;29.02;;;8.13;;
32427;SDS011;18882;50.952;4.366;2023-01-20T09:08:02;24.13;;;8.35;;
32427;SDS011;18882;50.952;4.366;2023-01-20T09:10:31;22.13;;;8.20;;
32427;SDS011;18882;50.952;4.366;2023-01-20T09:12:58;35.22;;;9.98;;
32427;SDS011;18882;50.952;4.366;2023-01-20T09:15:24;21.92;;;6.05;;
32427;SDS011;18882;50.952;4.366;2023-01-20T09:17:49;24.02;;;7.57;;
32427;SDS011;18882;50.952;4.366;2023-01-20T09:20:15;21.17;;;7.50;;
32427;SDS011;18882;50.952;4.366;2023-01-20T09:22:41;27.77;;;8.52;;
32427;SDS011;18882;50.952;4.366;2023-01-20T09:25:07;21.02;;;7.85;;
32427;SDS011;18882;50.952;4.366;2023-01-20T09:27:34;20.20;;;6.80;;
32427;SDS011;18882;50.952;4.366;2023-01-20T09:30:00;20.98;;;6.32;;
32427;SDS011;18882;50.952;4.366;2023-01-20T09:32:26;20.83;;;6.80;;
32427;SDS011;18882;50.952;4.366;2023-01-20T09:34:51;24.70;;;7.10;;
32427;SDS011;18882;50.952;4.366;2023-01-20T09:37:17;19.00;;;6.35;;
32427;SDS011;18882;50.952;4.366;2023-01-20T09:40:01;20.23;;;7.68;;
32427;SDS011;18882;50.952;4.366;2023-01-20T09:46:21;12.68;;;4.55;;
32427;SDS011;18882;50.952;4.366;2023-01-20T09:55:08;19.77;;;5.72;;
32427;SDS011;18882;50.952;4.366;2023-01-20T09:57:47;19.80;;;5.68;;
32427;SDS011;18882;50.952;4.366;2023-01-20T10:00:23;17.35;;;5.63;;
32427;SDS011;18882;50.952;4.366;2023-01-20T10:02:59;19.90;;;7.38;;
32427;SDS011;18882;50.952;4.366;2023-01-20T10:05:32;15.60;;;4.03;;
32427;SDS011;18882;50.952;4.366;2023-01-20T10:08:06;12.35;;;4.85;;
32427;SDS011;18882;50.952;4.366;2023-01-20T10:10:45;17.08;;;5.65;;
32427;SDS011;18882;50.952;4.366;2023-01-20T10:13:27;18.33;;;6.28;;
32427;SDS011;18882;50.952;4.366;2023-01-20T10:15:58;20.55;;;5.95;;
32427;SDS011;18882;50.952;4.366;2023-01-20T10:18:38;23.33;;;5.63;;
32427;SDS011;18882;50.952;4.366;2023-01-20T10:21:18;15.88;;;5.07;;
32427;SDS011;18882;50.952;4.366;2023-01-20T10:29:03;15.38;;;6.00;;
32427;SDS011;18882;50.952;4.366;2023-01-20T10:31:37;9.20;;;4.60;;
32427;SDS011;18882;50.952;4.366;2023-01-20T10:34:19;10.35;;;4.30;;
32427;SDS011;18882;50.952;4.366;2023-01-20T10:36:52;9.95;;;4.43;;
32427;SDS011;18882;50.952;4.366;2023-01-20T10:39:37;15.90;;;5.32;;
32427;SDS011;18882;50.952;4.366;2023-01-20T10:42:11;12.85;;;4.53;;
32427;SDS011;18882;50.952;4.366;2023-01-20T10:44:38;12.00;;;5.30;;
32427;SDS011;18882;50.952;4.366;2023-01-20T10:53:22;16.45;;;5.72;;
32427;SDS011;18882;50.952;4.366;2023-01-20T10:58:47;17.48;;;5.75;;
32427;SDS011;18882;50.952;4.366;2023-01-20T11:01:14;15.27;;;5.00;;
32427;SDS011;18882;50.952;4.366;2023-01-20T11:03:42;11.48;;;4.63;;
32427;SDS011;18882;50.952;4.366;2023-01-20T11:06:18;12.15;;;5.95;;
32427;SDS011;18882;50.952;4.366;2023-01-20T11:08:45;9.63;;;4.30;;
32427;SDS011;18882;50.952;4.366;2023-01-20T11:11:12;14.75;;;4.60;;
32427;SDS011;18882;50.952;4.366;2023-01-20T11:13:41;11.00;;;5.07;;
32427;SDS011;18882;50.952;4.366;2023-01-20T11:16:18;12.90;;;4.40;;
32427;SDS011;18882;50.952;4.366;2023-01-20T11:19:02;10.00;;;4.22;;
32427;SDS011;18882;50.952;4.366;2023-01-20T11:21:30;13.30;;;4.60;;
32427;SDS011;18882;50.952;4.366;2023-01-20T11:24:00;11.80;;;4.57;;
32427;SDS011;18882;50.952;4.366;2023-01-20T11:36:44;10.65;;;3.25;;
32427;SDS011;18882;50.952;4.366;2023-01-20T11:39:29;8.07;;;3.58;;
32427;SDS011;18882;50.952;4.366;2023-01-20T11:42:17;7.53;;;3.58;;
32427;SDS011;18882;50.952;4.366;2023-01-20T11:47:36;16.88;;;3.33;;
32427;SDS011;18882;50.952;4.366;2023-01-20T11:52:42;11.57;;;3.20;;
32427;SDS011;18882;50.952;4.366;2023-01-20T11:58:12;8.93;;;4.10;;
32427;SDS011;18882;50.952;4.366;2023-01-20T12:00:39;11.32;;;4.70;;
32427;SDS011;18882;50.952;4.366;2023-01-20T12:05:42;11.15;;;3.72;;
32427;SDS011;18882;50.952;4.366;2023-01-20T12:08:25;9.13;;;3.78;;
32427;SDS011;18882;50.952;4.366;2023-01-20T12:10:52;8.90;;;3.90;;
32427;SDS011;18882;50.952;4.366;2023-01-20T12:13:23;7.28;;;3.90;;
32427;SDS011;18882;50.952;4.366;2023-01-20T12:16:16;14.95;;;3.65;;
32427;SDS011;18882;50.952;4.366;2023-01-20T12:18:48;6.53;;;3.00;;
32427;SDS011;18882;50.952;4.366;2023-01-20T12:21:18;10.88;;;4.60;;
32427;SDS011;18882;50.952;4.366;2023-01-20T12:23:53;11.18;;;3.75;;
32427;SDS011;18882;50.952;4.366;2023-01-20T12:26:22;5.72;;;3.20;;
32427;SDS011;18882;50.952;4.366;2023-01-20T12:28:55;9.48;;;2.53;;
32427;SDS011;18882;50.952;4.366;2023-01-20T12:31:58;12.27;;;2.65;;
32427;SDS011;18882;50.952;4.366;2023-01-20T12:34:29;6.88;;;3.00;;
32427;SDS011;18882;50.952;4.366;2023-01-20T12:44:38;4.38;;;3.20;;
32427;SDS011;18882;50.952;4.366;2023-01-20T12:47:15;5.80;;;2.88;;
32427;SDS011;18882;50.952;4.366;2023-01-20T12:50:20;7.93;;;2.92;;
32427;SDS011;18882;50.952;4.366;2023-01-20T13:20:47;4.30;;;1.73;;
32427;SDS011;18882;50.952;4.366;2023-01-20T13:23:17;11.70;;;2.60;;
32427;SDS011;18882;50.952;4.366;2023-01-20T13:25:57;8.13;;;2.67;;
32427;SDS011;18882;50.952;4.366;2023-01-20T13:28:25;4.68;;;2.13;;
32427;SDS011;18882;50.952;4.366;2023-01-20T13:30:53;14.02;;;3.10;;
32427;SDS011;18882;50.952;4.366;2023-01-20T13:33:34;5.22;;;2.10;;
32427;SDS011;18882;50.952;4.366;2023-01-20T13:36:22;9.52;;;2.58;;
32427;SDS011;18882;50.952;4.366;2023-01-20T13:38:48;4.07;;;2.28;;
32427;SDS011;18882;50.952;4.366;2023-01-20T13:41:48;6.68;;;2.13;;
32427;SDS011;18882;50.952;4.366;2023-01-20T13:46:56;9.20;;;2.60;;
32427;SDS011;18882;50.952;4.366;2023-01-20T13:49:23;6.38;;;1.70;;
32427;SDS011;18882;50.952;4.366;2023-01-20T13:51:51;10.15;;;2.13;;
32427;SDS011;18882;50.952;4.366;2023-01-20T13:54:34;4.63;;;1.85;;
32427;SDS011;18882;50.952;4.366;2023-01-20T13:59:48;6.90;;;2.45;;
32427;SDS011;18882;50.952;4.366;2023-01-20T14:02:17;12.07;;;2.38;;
32427;SDS011;18882;50.952;4.366;2023-01-20T14:04:45;5.05;;;1.33;;
32427;SDS011;18882;50.952;4.366;2023-01-20T14:07:23;3.47;;;1.27;;
32427;SDS011;18882;50.952;4.366;2023-01-20T14:09:58;1.77;;;0.93;;
32427;SDS011;18882;50.952;4.366;2023-01-20T14:12:25;7.00;;;1.30;;
32427;SDS011;18882;50.952;4.366;2023-01-20T14:14:51;5.88;;;1.42;;
32427;SDS011;18882;50.952;4.366;2023-01-20T14:17:19;5.72;;;1.00;;
32427;SDS011;18882;50.952;4.366;2023-01-20T14:19:47;6.07;;;1.20;;
32427;SDS011;18882;50.952;4.366;2023-01-20T14:22:24;1.65;;;1.17;;
32427;SDS011;18882;50.952;4.366;2023-01-20T14:24:54;4.15;;;1.02;;
32427;SDS011;18882;50.952;4.366;2023-01-20T14:27:27;2.85;;;1.63;;
32427;SDS011;18882;50.952;4.366;2023-01-20T14:29:56;1.33;;;0.85;;
32427;SDS011;18882;50.952;4.366;2023-01-20T14:32:44;5.13;;;1.38;;
32427;SDS011;18882;50.952;4.366;2023-01-20T14:35:11;5.53;;;1.58;;
32427;SDS011;18882;50.952;4.366;2023-01-20T14:37:39;5.30;;;1.33;;
32427;SDS011;18882;50.952;4.366;2023-01-20T14:40:14;6.60;;;1.45;;
32427;SDS011;18882;50.952;4.366;2023-01-20T14:42:55;3.80;;;2.10;;
32427;SDS011;18882;50.952;4.366;2023-01-20T14:45:21;8.18;;;2.00;;
32427;SDS011;18882;50.952;4.366;2023-01-20T14:47:48;4.75;;;1.58;;
32427;SDS011;18882;50.952;4.366;2023-01-20T14:50:15;6.10;;;1.40;;
32427;SDS011;18882;50.952;4.366;2023-01-20T14:52:42;5.18;;;1.08;;
32427;SDS011;18882;50.952;4.366;2023-01-20T14:55:31;6.07;;;1.48;;
32427;SDS011;18882;50.952;4.366;2023-01-20T14:58:05;4.82;;;1.48;;
32427;SDS011;18882;50.952;4.366;2023-01-20T15:00:32;5.07;;;1.50;;
32427;SDS011;18882;50.952;4.366;2023-01-20T15:03:18;7.03;;;1.50;;
32427;SDS011;18882;50.952;4.366;2023-01-20T15:05:58;3.90;;;1.83;;
32427;SDS011;18882;50.952;4.366;2023-01-20T15:11:08;4.43;;;2.50;;
32427;SDS011;18882;50.952;4.366;2023-01-20T15:21:52;8.00;;;1.58;;
32427;SDS011;18882;50.952;4.366;2023-01-20T15:24:23;5.47;;;2.35;;
32427;SDS011;18882;50.952;4.366;2023-01-20T15:26:57;4.45;;;1.80;;
32427;SDS011;18882;50.952;4.366;2023-01-20T15:31:55;5.75;;;0.93;;
32427;SDS011;18882;50.952;4.366;2023-01-20T15:34:22;3.10;;;1.75;;
32427;SDS011;18882;50.952;4.366;2023-01-20T15:36:49;6.93;;;1.48;;
32427;SDS011;18882;50.952;4.366;2023-01-20T15:39:17;2.03;;;1.13;;
32427;SDS011;18882;50.952;4.366;2023-01-20T15:41:44;3.38;;;1.00;;
32427;SDS011;18882;50.952;4.366;2023-01-20T15:44:12;4.25;;;1.85;;
32427;SDS011;18882;50.952;4.366;2023-01-20T15:46:39;2.35;;;1.15;;
32427;SDS011;18882;50.952;4.366;2023-01-20T15:49:08;6.55;;;1.50;;
32427;SDS011;18882;50.952;4.366;2023-01-20T15:51:35;1.50;;;1.40;;
32427;SDS011;18882;50.952;4.366;2023-01-20T15:54:01;5.13;;;1.50;;
32427;SDS011;18882;50.952;4.366;2023-01-20T15:56:29;3.63;;;1.55;;
32427;SDS011;18882;50.952;4.366;2023-01-20T15:58:57;3.72;;;1.65;;
32427;SDS011;18882;50.952;4.366;2023-01-20T16:01:23;2.40;;;1.52;;
32427;SDS011;18882;50.952;4.366;2023-01-20T16:03:53;4.65;;;1.35;;
32427;SDS011;18882;50.952;4.366;2023-01-20T16:06:23;2.35;;;0.65;;
32427;SDS011;18882;50.952;4.366;2023-01-20T16:09:00;1.58;;;0.70;;
32427;SDS011;18882;50.952;4.366;2023-01-20T16:11:26;4.00;;;1.00;;
32427;SDS011;18882;50.952;4.366;2023-01-20T16:13:52;5.00;;;1.05;;
32427;SDS011;18882;50.952;4.366;2023-01-20T16:16:18;2.42;;;1.67;;
32427;SDS011;18882;50.952;4.366;2023-01-20T16:18:46;3.88;;;1.55;;
32427;SDS011;18882;50.952;4.366;2023-01-20T16:21:14;5.05;;;1.77;;
32427;SDS011;18882;50.952;4.366;2023-01-20T16:23:41;6.53;;;1.50;;
32427;SDS011;18882;50.952;4.366;2023-01-20T16:26:21;11.00;;;2.35;;
32427;SDS011;18882;50.952;4.366;2023-01-20T16:28:51;5.70;;;2.28;;
32427;SDS011;18882;50.952;4.366;2023-01-20T16:31:18;2.15;;;1.48;;
32427;SDS011;18882;50.952;4.366;2023-01-20T16:33:44;1.35;;;0.77;;
32427;SDS011;18882;50.952;4.366;2023-01-20T16:36:11;2.80;;;1.20;;
32427;SDS011;18882;50.952;4.366;2023-01-20T16:38:38;2.67;;;1.45;;
32427;SDS011;18882;50.952;4.366;2023-01-20T16:41:14;3.25;;;1.63;;
32427;SDS011;18882;50.952;4.366;2023-01-20T16:43:52;3.03;;;1.90;;
32427;SDS011;18882;50.952;4.366;2023-01-20T16:46:19;3.53;;;1.45;;
32427;SDS011;18882;50.952;4.366;2023-01-20T16:48:46;1.65;;;1.08;;
32427;SDS011;18882;50.952;4.366;2023-01-20T16:51:13;3.17;;;1.55;;
32427;SDS011;18882;50.952;4.366;2023-01-20T16:53:46;4.30;;;2.25;;
32427;SDS011;18882;50.952;4.366;2023-01-20T16:56:16;4.30;;;1.92;;
32427;SDS011;18882;50.952;4.366;2023-01-20T16:58:47;3.75;;;1.88;;
32427;SDS011;18882;50.952;4.366;2023-01-20T17:01:14;2.53;;;1.65;;